Time;durP1;ratioP1;P1;durP2;ratioP2;P2;SDS_P1;SDS_P2;PMS_P1;PMS_P2;Temp;Humidity;BMP_temperature;BMP_pressure;BME280_temperature;BME280_humidity;BME280_pressure;Samples;Min_cycle;Max_cycle;Signal;HPM_P1;HPM_P2
2022/04/07 00:01:01;;;;;;;10.90;5.38;;;9.80;99.90;;;;;;5013695;28;20041;-75
2022/04/07 00:03:27;;;;;;;4.28;3.42;;;9.70;99.90;;;;;;5013278;28;20048;-74
2022/04/07 00:05:52;;;;;;;5.03;3.58;;;9.70;99.90;;;;;;5013133;28;20103;-74
2022/04/07 00:08:18;;;;;;;3.47;3.28;;;9.70;99.90;;;;;;5012013;28;20057;-74
2022/04/07 00:10:46;;;;;;;2.80;2.70;;;9.70;99.90;;;;;;5025886;28;20507;-75
2022/04/07 00:13:12;;;;;;;6.90;4.05;;;9.60;99.90;;;;;;5006728;28;20453;-74
2022/04/07 00:15:37;;;;;;;5.78;3.85;;;9.60;99.90;;;;;;5021614;28;20076;-74
2022/04/07 00:18:04;;;;;;;21.35;4.72;;;9.50;99.90;;;;;;5008282;28;20033;-74
2022/04/07 00:20:30;;;;;;;3.33;3.08;;;9.50;99.90;;;;;;4996360;28;20039;-74
2022/04/07 00:22:57;;;;;;;4.90;4.18;;;9.50;99.90;;;;;;5013687;28;20045;-74
2022/04/07 00:25:25;;;;;;;3.13;2.92;;;9.40;99.90;;;;;;5012583;28;20091;-75
2022/04/07 00:27:51;;;;;;;5.03;2.97;;;9.40;99.90;;;;;;4997062;28;20072;-74
2022/04/07 00:30:20;;;;;;;2.90;2.80;;;9.40;99.90;;;;;;4996637;28;20091;-75
2022/04/07 00:32:46;;;;;;;4.10;3.53;;;9.40;99.90;;;;;;4996969;28;20041;-75
2022/04/07 00:35:12;;;;;;;3.10;2.90;;;9.40;99.90;;;;;;4996094;28;20060;-74
2022/04/07 00:37:39;;;;;;;5.53;5.03;;;9.40;99.90;;;;;;5012682;28;20033;-75
2022/04/07 00:40:06;;;;;;;6.57;4.25;;;9.30;99.90;;;;;;5013729;28;20036;-74
2022/04/07 00:42:32;;;;;;;5.53;3.78;;;9.40;99.90;;;;;;4996624;28;20055;-74
2022/04/07 00:44:59;;;;;;;3.13;2.92;;;9.40;99.90;;;;;;5012663;28;20033;-75
2022/04/07 00:47:27;;;;;;;6.10;3.80;;;9.40;99.90;;;;;;5012593;28;20096;-75
2022/04/07 00:49:53;;;;;;;10.07;4.95;;;9.40;99.90;;;;;;5012325;28;20041;-74
2022/04/07 00:52:19;;;;;;;12.00;4.95;;;9.40;99.90;;;;;;4996323;28;20037;-74
2022/04/07 00:54:46;;;;;;;6.60;5.47;;;9.40;99.90;;;;;;5008880;28;20121;-74
2022/04/07 00:57:13;;;;;;;7.28;4.30;;;9.40;99.90;;;;;;5011893;28;20060;-75
2022/04/07 00:59:39;;;;;;;3.38;3.17;;;9.40;99.90;;;;;;5012757;28;20056;-75
2022/04/07 01:02:06;;;;;;;3.13;2.88;;;9.40;99.90;;;;;;5009974;28;20100;-75
2022/04/07 01:04:33;;;;;;;6.55;5.18;;;9.40;99.90;;;;;;5007113;28;20038;-75
2022/04/07 01:06:59;;;;;;;2.70;2.60;;;9.40;99.90;;;;;;4995884;28;20040;-75
2022/04/07 01:09:24;;;;;;;3.65;3.40;;;9.40;99.90;;;;;;5012806;28;20123;-75
2022/04/07 01:11:52;;;;;;;3.33;3.13;;;9.40;99.90;;;;;;5009982;28;20045;-74
2022/04/07 01:14:18;;;;;;;7.70;5.70;;;9.40;99.90;;;;;;5012478;28;20128;-74
2022/04/07 01:16:43;;;;;;;7.35;5.35;;;9.40;99.90;;;;;;4993679;28;20128;-74
2022/04/07 01:19:10;;;;;;;13.77;8.25;;;9.40;99.90;;;;;;5011190;28;20042;-75
2022/04/07 01:21:37;;;;;;;5.88;4.75;;;9.30;99.90;;;;;;5010967;28;20041;-75
2022/04/07 01:24:08;;;;;;;12.18;4.35;;;9.20;99.90;;;;;;4994854;28;20448;-76
2022/04/07 01:26:39;;;;;;;18.08;9.10;;;9.20;99.90;;;;;;5027955;28;20112;-76
2022/04/07 01:29:10;;;;;;;6.97;4.53;;;9.10;99.90;;;;;;4993511;28;20056;-75
2022/04/07 01:31:37;;;;;;;3.72;3.53;;;9.00;99.90;;;;;;4995977;28;20041;-75
2022/04/07 01:34:06;;;;;;;6.88;4.93;;;9.00;99.90;;;;;;5011863;28;20047;-74
2022/04/07 01:36:35;;;;;;;5.22;4.93;;;9.00;99.90;;;;;;4994836;28;20068;-74
2022/04/07 01:39:02;;;;;;;6.78;5.03;;;9.00;99.90;;;;;;5011801;28;20080;-75
2022/04/07 01:41:28;;;;;;;4.03;3.83;;;8.90;99.90;;;;;;4996655;28;20501;-75
2022/04/07 01:43:57;;;;;;;4.25;3.40;;;9.00;99.90;;;;;;4994768;28;20075;-75
2022/04/07 01:46:24;;;;;;;9.55;5.20;;;9.00;99.90;;;;;;5011597;28;20045;-75
2022/04/07 01:48:51;;;;;;;7.53;5.68;;;9.00;99.90;;;;;;4996070;28;20487;-74
2022/04/07 01:51:18;;;;;;;10.18;5.30;;;9.10;99.90;;;;;;5011288;28;20057;-75
2022/04/07 01:53:44;;;;;;;4.20;3.40;;;9.10;99.90;;;;;;4994349;28;20104;-75
2022/04/07 01:56:10;;;;;;;12.57;3.47;;;9.10;99.90;;;;;;5010661;28;20033;-74
2022/04/07 01:58:36;;;;;;;3.67;3.47;;;9.10;99.90;;;;;;5011202;28;20092;-74
2022/04/07 02:01:05;;;;;;;3.17;2.97;;;9.10;99.90;;;;;;4994857;28;20042;-75
2022/04/07 02:03:30;;;;;;;12.55;4.97;;;9.10;99.90;;;;;;5011301;28;20564;-74
2022/04/07 02:06:19;;;;;;;7.35;4.72;;;9.10;99.90;;;;;;4994575;28;20048;-75
2022/04/07 02:08:45;;;;;;;9.07;4.22;;;9.10;99.90;;;;;;4994802;28;20052;-75
2022/04/07 02:11:11;;;;;;;23.83;8.45;;;9.10;99.90;;;;;;5011166;28;20041;-74
2022/04/07 02:13:39;;;;;;;5.38;4.05;;;9.10;99.90;;;;;;4995307;28;20480;-75
2022/04/07 02:16:06;;;;;;;7.32;4.10;;;9.10;99.90;;;;;;4994207;28;20045;-75
2022/04/07 02:18:32;;;;;;;12.80;4.57;;;9.10;99.90;;;;;;4993861;28;20037;-74
2022/04/07 02:20:58;;;;;;;3.30;3.10;;;9.00;99.90;;;;;;4994807;28;20045;-75
2022/04/07 02:23:23;;;;;;;3.10;2.90;;;9.00;99.90;;;;;;4995319;28;20053;-75
2022/04/07 02:25:49;;;;;;;3.90;3.22;;;9.10;99.90;;;;;;5006452;28;20156;-74
2022/04/07 02:28:14;;;;;;;22.13;4.93;;;9.10;99.90;;;;;;5010305;28;20058;-74
2022/04/07 02:30:40;;;;;;;4.82;4.45;;;9.10;99.90;;;;;;4994992;28;20056;-75
2022/04/07 02:33:06;;;;;;;12.32;5.07;;;9.10;99.90;;;;;;4993188;28;20099;-74
2022/04/07 02:35:31;;;;;;;9.43;3.72;;;9.20;99.90;;;;;;4999447;28;20060;-74
2022/04/07 02:38:00;;;;;;;4.28;3.95;;;9.20;99.90;;;;;;5010617;28;20037;-74
2022/04/07 02:40:26;;;;;;;12.68;4.72;;;9.20;99.90;;;;;;5000866;28;20037;-75
2022/04/07 02:42:52;;;;;;;13.27;6.15;;;9.20;99.90;;;;;;5024187;28;20034;-74
2022/04/07 02:45:17;;;;;;;6.38;3.80;;;9.20;99.90;;;;;;5010798;28;20041;-75
2022/04/07 02:47:43;;;;;;;7.30;4.60;;;9.20;99.90;;;;;;5010820;28;20080;-74
2022/04/07 02:50:09;;;;;;;3.47;3.10;;;9.20;99.90;;;;;;4994359;28;20498;-75
2022/04/07 02:52:35;;;;;;;13.55;5.80;;;9.30;99.90;;;;;;5011344;28;20521;-74
2022/04/07 02:55:01;;;;;;;17.95;6.40;;;9.30;99.90;;;;;;4993716;28;20095;-74
2022/04/07 02:57:30;;;;;;;4.22;3.92;;;9.20;99.90;;;;;;5000754;28;20502;-75
2022/04/07 02:59:58;;;;;;;10.50;4.78;;;9.20;99.90;;;;;;5010352;28;20045;-74
2022/04/07 03:02:23;;;;;;;8.57;4.35;;;9.20;99.90;;;;;;4994203;28;20049;-74
2022/04/07 03:04:49;;;;;;;4.97;4.20;;;9.20;99.90;;;;;;4986783;28;20040;-74
2022/04/07 03:07:14;;;;;;;4.55;3.67;;;9.20;99.90;;;;;;5009910;28;20045;-75
2022/04/07 03:09:40;;;;;;;4.70;3.95;;;9.20;99.90;;;;;;5021622;28;20054;-75
2022/04/07 03:12:07;;;;;;;7.10;3.28;;;9.20;99.90;;;;;;4991780;28;20041;-74
2022/04/07 03:14:32;;;;;;;5.45;4.15;;;9.30;99.90;;;;;;4992715;28;20098;-74
2022/04/07 03:16:58;;;;;;;11.32;5.03;;;9.20;99.90;;;;;;5010200;28;20482;-74
2022/04/07 03:19:24;;;;;;;3.58;3.38;;;9.30;99.90;;;;;;4989815;28;20040;-74
2022/04/07 03:21:49;;;;;;;3.67;3.47;;;9.30;99.90;;;;;;4997998;28;20041;-74
2022/04/07 03:24:15;;;;;;;6.05;5.15;;;9.20;99.90;;;;;;4998564;28;20069;-74
2022/04/07 03:26:41;;;;;;;8.60;5.70;;;9.20;99.90;;;;;;4997073;28;20073;-74
2022/04/07 03:29:07;;;;;;;3.45;3.22;;;9.20;99.90;;;;;;4996377;28;20060;-74
2022/04/07 03:31:33;;;;;;;3.97;3.67;;;9.30;99.90;;;;;;5014378;28;20136;-74
2022/04/07 03:33:58;;;;;;;22.60;4.32;;;9.30;99.90;;;;;;5014485;28;20547;-74
2022/04/07 03:36:24;;;;;;;7.90;5.63;;;9.20;99.90;;;;;;4997627;28;20493;-74
2022/04/07 03:38:51;;;;;;;21.48;3.75;;;9.20;99.90;;;;;;4997827;28;20041;-74
2022/04/07 03:41:17;;;;;;;11.60;5.75;;;9.20;99.90;;;;;;5009946;28;20529;-74
2022/04/07 03:43:43;;;;;;;12.77;4.00;;;9.30;99.90;;;;;;5013356;28;20073;-74
2022/04/07 03:46:09;;;;;;;8.93;3.15;;;9.30;99.90;;;;;;4997361;28;20513;-74
2022/04/07 03:48:35;;;;;;;5.03;4.72;;;9.30;99.90;;;;;;5014308;28;20041;-74
2022/04/07 03:51:02;;;;;;;4.90;4.47;;;9.30;99.90;;;;;;4997459;28;20057;-74
2022/04/07 03:53:27;;;;;;;8.27;5.00;;;9.30;99.90;;;;;;4997496;28;20562;-74
2022/04/07 03:55:53;;;;;;;10.73;4.68;;;9.30;99.90;;;;;;4994796;28;20132;-74
2022/04/07 03:58:18;;;;;;;4.15;3.72;;;9.40;99.90;;;;;;5005869;28;20041;-74
2022/04/07 04:00:44;;;;;;;3.40;3.20;;;9.40;99.90;;;;;;4997012;28;20506;-74
2022/04/07 04:03:10;;;;;;;9.27;3.58;;;9.40;99.90;;;;;;4982834;28;20460;-74
2022/04/07 04:05:35;;;;;;;12.57;5.90;;;9.40;99.90;;;;;;4978968;28;20038;-74
2022/04/07 04:08:01;;;;;;;9.48;4.53;;;9.40;99.90;;;;;;4993469;28;20520;-74
2022/04/07 04:10:27;;;;;;;11.40;4.65;;;9.40;99.90;;;;;;4987829;28;20087;-74
2022/04/07 04:12:52;;;;;;;6.25;3.85;;;9.40;99.90;;;;;;4986605;28;20121;-74
2022/04/07 04:15:18;;;;;;;3.13;2.92;;;9.30;99.90;;;;;;4986590;28;20067;-74
2022/04/07 04:17:44;;;;;;;7.68;5.75;;;9.30;99.90;;;;;;4993405;28;20057;-74
2022/04/07 04:20:10;;;;;;;8.20;5.90;;;9.30;99.90;;;;;;5006150;28;20497;-74
2022/04/07 04:22:36;;;;;;;6.75;5.50;;;9.20;99.90;;;;;;4997362;28;20116;-74
2022/04/07 04:25:03;;;;;;;12.80;5.90;;;9.20;99.90;;;;;;4994780;28;20077;-74
2022/04/07 04:27:28;;;;;;;12.63;6.45;;;9.10;99.90;;;;;;4996918;28;20131;-74
2022/04/07 04:29:54;;;;;;;8.93;4.88;;;9.10;99.90;;;;;;4997099;28;20550;-75
2022/04/07 04:32:20;;;;;;;12.48;4.70;;;9.10;99.90;;;;;;4996752;28;20042;-74
2022/04/07 04:34:46;;;;;;;36.10;8.52;;;9.10;99.90;;;;;;4996756;28;20041;-74
2022/04/07 04:37:11;;;;;;;5.22;4.72;;;9.10;99.90;;;;;;5012862;28;20037;-75
2022/04/07 04:39:37;;;;;;;4.20;3.90;;;9.00;99.90;;;;;;5011444;28;20046;-74
2022/04/07 04:42:04;;;;;;;13.30;5.18;;;9.00;99.90;;;;;;5020509;28;20128;-74
2022/04/07 04:44:30;;;;;;;16.70;5.55;;;9.00;99.90;;;;;;5013381;28;20397;-75
2022/04/07 04:46:55;;;;;;;8.98;4.38;;;9.00;99.90;;;;;;4993123;28;20045;-74
2022/04/07 04:49:21;;;;;;;14.48;6.32;;;9.00;99.90;;;;;;4995677;28;20100;-74
2022/04/07 04:51:47;;;;;;;21.20;5.97;;;9.00;99.90;;;;;;4997842;28;20050;-74
2022/04/07 04:54:13;;;;;;;21.48;5.80;;;9.00;99.90;;;;;;5006460;28;20121;-74
2022/04/07 04:56:42;;;;;;;11.30;5.13;;;9.00;99.90;;;;;;5012704;28;20129;-74
2022/04/07 04:59:08;;;;;;;8.45;4.07;;;8.90;99.90;;;;;;5010276;28;20471;-74
2022/04/07 05:01:34;;;;;;;17.27;4.85;;;8.90;99.90;;;;;;4996990;28;20132;-74
2022/04/07 05:03:59;;;;;;;13.00;4.93;;;8.90;99.90;;;;;;5011932;28;20045;-75
2022/04/07 05:06:25;;;;;;;4.60;3.65;;;8.90;99.90;;;;;;5010323;28;20044;-74
2022/04/07 05:08:51;;;;;;;12.52;5.05;;;8.90;99.90;;;;;;5012398;28;20045;-75
2022/04/07 05:11:16;;;;;;;17.50;7.25;;;8.90;99.90;;;;;;4994807;28;20486;-74
2022/04/07 05:13:42;;;;;;;5.55;4.15;;;8.90;99.90;;;;;;4996513;28;20041;-75
2022/04/07 05:16:08;;;;;;;7.55;3.33;;;8.80;99.90;;;;;;4995139;28;20045;-75
2022/04/07 05:18:34;;;;;;;7.28;3.65;;;8.70;99.90;;;;;;5008654;28;20033;-74
2022/04/07 05:21:00;;;;;;;13.45;4.85;;;8.50;99.90;;;;;;4995242;28;20165;-73
2022/04/07 05:23:25;;;;;;;8.77;5.85;;;8.20;99.90;;;;;;5012350;28;20128;-74
2022/04/07 05:25:51;;;;;;;9.02;5.40;;;7.90;99.90;;;;;;4991001;28;20060;-74
2022/04/07 05:28:17;;;;;;;8.23;7.60;;;7.70;99.90;;;;;;5011267;28;20045;-73
2022/04/07 05:30:43;;;;;;;6.40;5.97;;;7.60;99.90;;;;;;4991399;28;20055;-73
2022/04/07 05:33:08;;;;;;;5.68;5.07;;;7.30;99.90;;;;;;5008867;28;20048;-74
2022/04/07 05:35:34;;;;;;;7.18;6.78;;;7.10;99.90;;;;;;4995523;28;20041;-74
2022/04/07 05:38:02;;;;;;;7.68;6.35;;;6.90;99.90;;;;;;5008079;28;20502;-74
2022/04/07 05:40:28;;;;;;;9.55;5.70;;;6.90;99.90;;;;;;5013566;28;20116;-73
2022/04/07 05:42:54;;;;;;;4.65;4.35;;;6.80;99.90;;;;;;5011551;28;20045;-74
2022/04/07 05:45:20;;;;;;;8.27;4.93;;;6.80;99.90;;;;;;5007245;28;20430;-74
2022/04/07 05:47:45;;;;;;;6.80;3.30;;;6.70;99.90;;;;;;4995203;28;20116;-74
2022/04/07 05:50:11;;;;;;;4.68;2.45;;;6.70;99.90;;;;;;5004737;28;20493;-73
2022/04/07 05:52:37;;;;;;;5.70;4.97;;;6.70;99.90;;;;;;5010761;28;20042;-74
2022/04/07 05:55:04;;;;;;;4.13;3.15;;;6.60;99.90;;;;;;5009712;28;20120;-74
2022/04/07 05:57:30;;;;;;;4.85;4.32;;;6.60;99.90;;;;;;4995734;28;20041;-73
2022/04/07 06:00:12;;;;;;;3.03;2.83;;;6.50;99.90;;;;;;5011661;28;20538;-74
2022/04/07 06:02:41;;;;;;;3.28;3.05;;;6.40;99.90;;;;;;5000098;28;20037;-73
2022/04/07 06:05:09;;;;;;;176.65;32.00;;;6.30;99.90;;;;;;5011337;28;20073;-74
2022/04/07 06:07:36;;;;;;;24.88;23.10;;;6.20;99.90;;;;;;4988211;28;20037;-74
2022/04/07 06:10:04;;;;;;;19.63;18.23;;;6.20;99.90;;;;;;4994675;28;20048;-74
2022/04/07 06:12:29;;;;;;;3.35;2.75;;;6.10;99.90;;;;;;5010967;28;20072;-74
2022/04/07 06:14:55;;;;;;;4.13;3.78;;;6.00;99.90;;;;;;5009056;28;20501;-74
2022/04/07 06:17:34;;;;;;;4.32;3.38;;;5.90;99.90;;;;;;4994811;28;20056;-73
2022/04/07 06:19:59;;;;;;;3.20;3.00;;;5.90;99.90;;;;;;5003851;28;20042;-73
2022/04/07 06:22:25;;;;;;;4.50;4.20;;;5.80;99.90;;;;;;4991463;28;20057;-73
2022/04/07 06:24:51;;;;;;;4.18;3.97;;;5.80;99.90;;;;;;5011287;28;20033;-73
2022/04/07 06:27:16;;;;;;;5.40;3.97;;;5.70;99.90;;;;;;4994323;28;20048;-73
2022/04/07 06:29:42;;;;;;;10.30;9.00;;;5.70;99.90;;;;;;5011600;28;20041;-74
2022/04/07 06:32:08;;;;;;;2.72;2.63;;;5.70;99.90;;;;;;4995011;28;20453;-73
2022/04/07 06:34:34;;;;;;;2.60;2.50;;;5.60;99.90;;;;;;5026928;28;20057;-73
2022/04/07 06:37:00;;;;;;;2.10;2.00;;;5.60;99.90;;;;;;5019755;28;20064;-73
2022/04/07 06:39:26;;;;;;;2.28;2.15;;;5.70;99.90;;;;;;5002021;28;20041;-73
2022/04/07 06:41:52;;;;;;;2.60;2.50;;;5.70;99.90;;;;;;5012714;28;20088;-73
2022/04/07 06:44:19;;;;;;;2.38;2.28;;;5.70;99.90;;;;;;5009685;28;20501;-73
2022/04/07 06:46:45;;;;;;;2.00;1.90;;;5.70;99.90;;;;;;5005384;28;20041;-73
2022/04/07 06:49:11;;;;;;;1.50;1.50;;;5.80;99.90;;;;;;5010362;28;20049;-73
2022/04/07 06:51:36;;;;;;;2.00;1.90;;;5.80;99.90;;;;;;5006856;28;20052;-74
2022/04/07 06:54:02;;;;;;;6.22;2.45;;;5.80;99.90;;;;;;5010996;28;20207;-73
2022/04/07 06:56:27;;;;;;;2.90;2.70;;;5.90;99.90;;;;;;5007771;28;20128;-73
2022/04/07 06:58:54;;;;;;;1.77;1.73;;;5.90;99.90;;;;;;4992829;28;20048;-73
2022/04/07 07:01:20;;;;;;;4.00;1.83;;;6.00;99.90;;;;;;5003330;28;20050;-73
2022/04/07 07:03:46;;;;;;;2.63;2.45;;;6.00;99.90;;;;;;5005179;28;20434;-72
2022/04/07 07:06:11;;;;;;;1.88;1.77;;;6.00;99.90;;;;;;5001962;28;20120;-72
2022/04/07 07:08:37;;;;;;;1.67;1.60;;;6.10;99.90;;;;;;4991562;28;20461;-72
2022/04/07 07:11:03;;;;;;;1.92;1.83;;;6.10;99.90;;;;;;4987824;28;20136;-72
2022/04/07 07:13:29;;;;;;;1.70;1.70;;;6.10;99.90;;;;;;5009884;28;20452;-72
2022/04/07 07:15:55;;;;;;;2.15;2.05;;;6.10;99.90;;;;;;5026512;28;20413;-72
2022/04/07 07:18:21;;;;;;;2.08;1.98;;;6.10;99.90;;;;;;4992396;28;20527;-73
2022/04/07 07:20:47;;;;;;;1.40;1.40;;;6.10;99.90;;;;;;4993390;28;20037;-73
2022/04/07 07:23:13;;;;;;;2.33;2.13;;;6.10;99.90;;;;;;4994514;28;20041;-72
2022/04/07 07:25:38;;;;;;;6.78;2.92;;;6.20;99.90;;;;;;5005452;28;20046;-73
2022/04/07 07:28:05;;;;;;;1.60;1.60;;;6.20;99.90;;;;;;5005656;28;20050;-73
2022/04/07 07:30:30;;;;;;;2.15;2.05;;;6.30;99.90;;;;;;4987026;28;20065;-73
2022/04/07 07:32:56;;;;;;;2.35;2.17;;;6.30;99.90;;;;;;5008528;28;20055;-73
2022/04/07 07:35:24;;;;;;;1.92;1.83;;;6.30;99.90;;;;;;4997295;28;20092;-73
2022/04/07 07:38:01;;;;;;;4.07;1.63;;;6.40;99.90;;;;;;5010286;28;20125;-73
2022/04/07 07:40:28;;;;;;;2.97;1.92;;;6.40;99.90;;;;;;4994234;28;20052;-73
2022/04/07 07:42:56;;;;;;;2.00;1.95;;;6.40;99.90;;;;;;5006769;28;20419;-73
2022/04/07 07:45:22;;;;;;;1.98;1.88;;;6.40;99.90;;;;;;4996818;28;20127;-72
2022/04/07 07:47:48;;;;;;;1.60;1.60;;;6.50;99.90;;;;;;4991670;28;20051;-72
2022/04/07 07:50:14;;;;;;;7.32;3.85;;;6.50;99.90;;;;;;5003695;28;20046;-72
2022/04/07 07:52:40;;;;;;;2.20;1.80;;;6.60;99.90;;;;;;4993740;28;20072;-73
2022/04/07 07:55:06;;;;;;;1.92;1.83;;;6.60;99.90;;;;;;5002870;28;20038;-73
2022/04/07 07:57:32;;;;;;;4.38;2.53;;;6.60;99.90;;;;;;5006467;28;20540;-73
2022/04/07 07:59:58;;;;;;;4.30;1.80;;;6.70;99.90;;;;;;4974839;28;20077;-73
2022/04/07 08:02:24;;;;;;;1.00;1.00;;;6.80;99.90;;;;;;4990755;28;20049;-73
2022/04/07 08:04:49;;;;;;;2.03;1.80;;;7.00;99.90;;;;;;5012232;28;20511;-72
2022/04/07 08:07:15;;;;;;;1.00;1.00;;;7.20;99.90;;;;;;5005952;28;20041;-73
2022/04/07 08:09:41;;;;;;;1.30;1.30;;;7.20;99.90;;;;;;4994484;28;20139;-73
2022/04/07 08:12:07;;;;;;;1.40;1.40;;;7.20;99.90;;;;;;5005244;28;20054;-73
2022/04/07 08:14:33;;;;;;;1.60;1.60;;;7.20;99.90;;;;;;4996181;28;20053;-73
2022/04/07 08:16:58;;;;;;;1.77;1.67;;;7.30;99.90;;;;;;4997959;28;20523;-73
2022/04/07 08:19:25;;;;;;;1.60;1.60;;;7.40;99.90;;;;;;5013593;28;20075;-73
2022/04/07 08:21:51;;;;;;;7.60;2.28;;;7.50;99.90;;;;;;5014265;28;20405;-73
2022/04/07 08:24:18;;;;;;;1.50;1.50;;;7.70;99.90;;;;;;5008756;28;20037;-73
2022/04/07 08:26:44;;;;;;;2.30;1.55;;;7.80;99.90;;;;;;5010075;28;20058;-73
2022/04/07 08:29:10;;;;;;;2.17;1.83;;;8.00;99.90;;;;;;5009694;28;20037;-73
2022/04/07 08:31:35;;;;;;;1.77;1.67;;;8.10;99.90;;;;;;5003447;28;20050;-73
2022/04/07 08:34:01;;;;;;;6.53;1.88;;;8.30;99.90;;;;;;5000056;28;20053;-73
2022/04/07 08:36:27;;;;;;;2.38;1.70;;;8.50;99.90;;;;;;4988667;28;20169;-73
2022/04/07 08:38:52;;;;;;;1.75;1.58;;;8.60;99.90;;;;;;5000214;28;20379;-72
2022/04/07 08:41:18;;;;;;;2.10;1.58;;;8.70;99.90;;;;;;4998114;28;20034;-72
2022/04/07 08:43:45;;;;;;;2.95;2.30;;;8.90;99.90;;;;;;5001923;28;20068;-72
2022/04/07 08:46:12;;;;;;;9.65;1.67;;;9.20;99.90;;;;;;4990591;28;20406;-74
2022/04/07 08:48:42;;;;;;;5.47;1.70;;;9.40;99.90;;;;;;5018294;28;20045;-73
2022/04/07 08:51:08;;;;;;;3.72;1.90;;;9.60;99.90;;;;;;5001462;28;20053;-72
2022/04/07 08:53:35;;;;;;;7.38;2.92;;;9.80;99.90;;;;;;4988110;28;20041;-72
2022/04/07 08:56:01;;;;;;;3.75;2.28;;;10.20;99.90;;;;;;5024611;28;20080;-72
2022/04/07 08:58:28;;;;;;;2.78;1.63;;;10.80;99.90;;;;;;5019554;28;20045;-72
2022/04/07 09:00:53;;;;;;;1.00;1.00;;;11.10;99.90;;;;;;5021108;28;20046;-72
2022/04/07 09:03:19;;;;;;;3.63;2.25;;;11.10;99.90;;;;;;4998371;28;20463;-73
2022/04/07 09:05:53;;;;;;;17.15;2.78;;;11.40;99.90;;;;;;5002419;28;20046;-73
2022/04/07 09:08:19;;;;;;;4.93;2.03;;;11.50;99.90;;;;;;4987949;28;20045;-73
2022/04/07 09:10:54;;;;;;;2.80;1.58;;;11.40;99.90;;;;;;5006824;28;20064;-73
2022/04/07 09:13:20;;;;;;;1.70;1.50;;;11.60;99.90;;;;;;4993346;28;20061;-73
2022/04/07 09:15:48;;;;;;;2.70;2.50;;;11.80;99.90;;;;;;4992197;28;20049;-73
2022/04/07 09:18:24;;;;;;;3.08;1.45;;;11.70;99.90;;;;;;5007598;28;20060;-73
2022/04/07 09:20:51;;;;;;;2.72;1.73;;;11.40;99.90;;;;;;5008654;28;20107;-73
2022/04/07 09:23:20;;;;;;;2.60;1.38;;;11.50;99.90;;;;;;4992621;28;20053;-73
2022/04/07 09:25:49;;;;;;;3.08;1.42;;;11.60;99.90;;;;;;4992752;28;20057;-73
2022/04/07 09:28:44;;;;;;;5.82;2.15;;;11.20;99.90;;;;;;5008667;28;20054;-73
2022/04/07 09:31:15;;;;;;;2.25;0.98;;;10.80;99.90;;;;;;4981862;28;20057;-73
2022/04/07 09:33:41;;;;;;;3.00;1.02;;;10.60;99.90;;;;;;5008835;28;20129;-73
2022/04/07 09:36:12;;;;;;;2.80;1.67;;;10.40;99.90;;;;;;4992666;28;20157;-73
2022/04/07 09:38:38;;;;;;;2.58;1.00;;;10.20;99.90;;;;;;5009023;28;20057;-73
2022/04/07 09:41:10;;;;;;;4.20;1.42;;;10.10;99.90;;;;;;4999940;28;20041;-73
2022/04/07 09:43:49;;;;;;;1.75;1.65;;;10.30;99.90;;;;;;4978669;28;20049;-73
2022/04/07 09:46:20;;;;;;;5.95;1.50;;;10.60;99.90;;;;;;4992221;28;20056;-73
2022/04/07 09:49:01;;;;;;;0.90;0.90;;;10.80;99.90;;;;;;5008148;28;20046;-73
2022/04/07 09:51:28;;;;;;;3.15;1.35;;;11.30;99.90;;;;;;5008795;28;20080;-73
2022/04/07 09:53:57;;;;;;;7.35;2.97;;;11.30;99.90;;;;;;4992319;28;20441;-73
2022/04/07 09:56:28;;;;;;;6.38;2.03;;;11.20;99.90;;;;;;4992064;28;20077;-73
2022/04/07 09:58:55;;;;;;;6.22;1.80;;;10.90;99.90;;;;;;5007521;28;20037;-73
2022/04/07 10:01:21;;;;;;;6.95;2.67;;;10.60;99.90;;;;;;4988366;28;20116;-73
2022/04/07 10:03:50;;;;;;;5.70;1.83;;;10.50;99.90;;;;;;4980379;28;20057;-73
2022/04/07 10:06:17;;;;;;;6.13;2.25;;;10.80;99.90;;;;;;5008567;28;20509;-73
2022/04/07 10:08:42;;;;;;;3.05;1.38;;;11.00;99.90;;;;;;5008478;28;20485;-73
2022/04/07 10:11:09;;;;;;;6.30;1.58;;;11.00;99.90;;;;;;5008166;28;20108;-73
2022/04/07 10:13:37;;;;;;;5.47;1.75;;;10.90;99.90;;;;;;4994534;28;20045;-73
2022/04/07 10:16:03;;;;;;;6.68;2.03;;;10.80;99.90;;;;;;4982081;28;20493;-73
2022/04/07 10:18:33;;;;;;;10.50;3.80;;;10.70;99.90;;;;;;4979562;28;20038;-71
2022/04/07 10:21:00;;;;;;;2.60;1.83;;;10.40;99.90;;;;;;4981764;28;20046;-71
2022/04/07 10:23:37;;;;;;;4.35;3.42;;;9.60;99.90;;;;;;4988527;28;20049;-71
2022/04/07 10:26:04;;;;;;;10.68;8.45;;;9.40;99.90;;;;;;5004054;28;20066;-71
2022/04/07 10:28:30;;;;;;;7.30;6.30;;;9.50;99.90;;;;;;5012400;28;20054;-71
2022/04/07 10:30:56;;;;;;;2.63;2.53;;;9.30;99.90;;;;;;4976922;28;20302;-72
2022/04/07 10:33:42;;;;;;;9.75;5.63;;;9.10;99.90;;;;;;4988763;28;20046;-72
2022/04/07 10:36:12;;;;;;;6.15;4.03;;;9.10;99.90;;;;;;5007142;28;20088;-72
2022/04/07 10:38:40;;;;;;;2.55;2.35;;;9.20;99.90;;;;;;4992140;28;20491;-71
2022/04/07 10:41:06;;;;;;;12.45;3.22;;;9.30;99.90;;;;;;4987776;28;20161;-72
2022/04/07 10:43:37;;;;;;;10.68;3.00;;;9.30;99.90;;;;;;4988813;28;20499;-72
2022/04/07 10:46:06;;;;;;;6.40;2.17;;;9.20;99.90;;;;;;5001975;28;20042;-71
2022/04/07 10:48:44;;;;;;;10.80;3.63;;;9.10;99.90;;;;;;5005711;28;20567;-72
2022/04/07 10:51:11;;;;;;;10.02;3.17;;;9.10;99.90;;;;;;5003429;28;20053;-71
2022/04/07 10:53:52;;;;;;;2.85;2.65;;;9.00;99.90;;;;;;4996933;28;20081;-72
2022/04/07 10:56:39;;;;;;;6.03;4.70;;;9.00;99.90;;;;;;5003754;28;20050;-71
2022/04/07 10:59:16;;;;;;;5.85;3.38;;;9.00;99.90;;;;;;5004443;28;20046;-71
2022/04/07 11:01:42;;;;;;;7.70;3.45;;;9.10;99.90;;;;;;4982926;28;20088;-72
2022/04/07 11:04:17;;;;;;;11.48;4.05;;;9.30;99.90;;;;;;4993999;28;20486;-72
2022/04/07 11:07:04;;;;;;;8.73;4.15;;;9.50;99.90;;;;;;5007153;28;20076;-73
2022/04/07 11:09:42;;;;;;;8.45;6.43;;;9.50;99.90;;;;;;4988050;28;20045;-72
2022/04/07 11:12:09;;;;;;;10.05;3.33;;;9.60;99.90;;;;;;4973749;28;20048;-72
2022/04/07 11:14:35;;;;;;;11.30;3.95;;;9.70;99.90;;;;;;4998920;28;20104;-72
2022/04/07 11:17:04;;;;;;;12.63;3.78;;;10.00;99.90;;;;;;4981933;28;20460;-72
2022/04/07 11:20:07;;;;;;;5.15;2.78;;;10.40;99.90;;;;;;5019998;28;20401;-72
2022/04/07 11:23:14;;;;;;;10.45;2.95;;;10.80;99.90;;;;;;5006247;28;20069;-72
2022/04/07 11:25:41;;;;;;;3.00;2.20;;;10.80;99.90;;;;;;4953163;28;20562;-72
2022/04/07 11:28:14;;;;;;;5.07;2.25;;;10.70;99.90;;;;;;5003316;28;20049;-73
2022/04/07 11:30:42;;;;;;;9.13;4.53;;;10.60;99.90;;;;;;4991272;28;20447;-72
2022/04/07 11:33:18;;;;;;;4.88;2.20;;;10.40;99.90;;;;;;5001769;28;20046;-73
2022/04/07 11:35:44;;;;;;;8.63;2.70;;;10.20;99.90;;;;;;4999937;28;20405;-72
2022/04/07 11:38:10;;;;;;;10.38;2.78;;;10.10;99.90;;;;;;4993200;28;20046;-72
2022/04/07 11:40:36;;;;;;;3.17;1.92;;;10.10;99.90;;;;;;5000248;28;20040;-72
2022/04/07 11:43:02;;;;;;;7.97;2.47;;;10.30;99.90;;;;;;5007256;28;20026;-72
2022/04/07 11:45:34;;;;;;;12.63;3.25;;;10.20;99.90;;;;;;4990986;28;20034;-71
2022/04/07 11:48:01;;;;;;;3.28;1.40;;;10.30;99.90;;;;;;5007175;28;20457;-72
2022/04/07 11:50:27;;;;;;;9.02;2.42;;;10.20;99.90;;;;;;5023463;28;20041;-72
2022/04/07 11:52:53;;;;;;;6.40;2.30;;;10.20;99.90;;;;;;4992162;28;20371;-72
2022/04/07 11:55:29;;;;;;;8.57;2.63;;;10.30;99.90;;;;;;4993329;28;20502;-72
2022/04/07 11:58:01;;;;;;;4.00;1.70;;;10.30;99.90;;;;;;5009513;28;20052;-72
2022/04/07 12:00:30;;;;;;;7.78;1.73;;;10.40;99.90;;;;;;5010942;28;20152;-72
2022/04/07 12:03:04;;;;;;;6.82;1.95;;;10.50;99.90;;;;;;5009391;28;20506;-72
2022/04/07 12:05:33;;;;;;;8.15;2.92;;;10.60;99.90;;;;;;4990907;28;20052;-72
2022/04/07 12:08:11;;;;;;;12.70;3.00;;;10.70;99.90;;;;;;5011335;28;20042;-72
2022/04/07 12:10:44;;;;;;;18.30;2.05;;;10.90;99.90;;;;;;5007659;28;20046;-72
2022/04/07 12:13:10;;;;;;;9.30;2.03;;;11.10;99.90;;;;;;5006401;28;20046;-72
2022/04/07 12:15:38;;;;;;;4.63;1.70;;;11.30;99.90;;;;;;4991527;28;20045;-72
2022/04/07 12:18:08;;;;;;;5.68;2.20;;;11.30;99.90;;;;;;4998165;28;20517;-72
2022/04/07 12:20:35;;;;;;;7.53;2.28;;;11.30;99.90;;;;;;4994976;28;20034;-72
2022/04/07 12:23:09;;;;;;;5.53;2.15;;;11.00;99.90;;;;;;4974522;28;20034;-72
2022/04/07 12:25:36;;;;;;;10.00;5.30;;;10.60;99.90;;;;;;4990864;28;20389;-71
2022/04/07 12:28:16;;;;;;;9.27;5.97;;;10.10;99.90;;;;;;4980714;28;20048;-72
2022/04/07 12:30:47;;;;;;;17.13;16.08;;;9.10;99.90;;;;;;4983221;28;20372;-72
2022/04/07 12:33:41;;;;;;;21.08;19.88;;;8.00;99.90;;;;;;5000963;28;20046;-72
2022/04/07 12:36:11;;;;;;;24.38;22.02;;;7.60;99.90;;;;;;4975050;28;20046;-72
2022/04/07 12:38:38;;;;;;;12.50;11.57;;;7.70;99.90;;;;;;5006864;28;20054;-72
2022/04/07 12:41:15;;;;;;;20.02;18.17;;;8.00;99.90;;;;;;4990709;28;20042;-72
2022/04/07 12:43:52;;;;;;;7.32;5.38;;;8.30;99.90;;;;;;5000292;28;20038;-73
2022/04/07 12:46:19;;;;;;;13.80;10.45;;;8.50;99.90;;;;;;4975062;28;20046;-73
2022/04/07 12:49:06;;;;;;;13.38;11.55;;;8.60;99.90;;;;;;4990643;28;20082;-73
2022/04/07 12:51:37;;;;;;;12.45;8.23;;;8.50;99.90;;;;;;4974605;28;20034;-73
2022/04/07 12:54:06;;;;;;;5.32;4.82;;;8.50;99.90;;;;;;4992151;28;20472;-72
2022/04/07 12:56:32;;;;;;;8.68;4.97;;;8.40;99.90;;;;;;4990401;28;20045;-73